createdAt,value
2019-03-01T00:01:34.172Z,7.21
2019-03-01T00:05:16.210Z,7.18
2019-03-01T00:08:55.733Z,7.06
2019-03-01T00:12:49.268Z,7.20
2019-03-01T00:16:23.307Z,6.91
2019-03-01T00:19:51.599Z,6.89
2019-03-01T00:23:08.124Z,6.84
2019-03-01T00:26:39.998Z,6.78
2019-03-01T00:30:27.133Z,6.98
2019-03-01T00:33:55.928Z,6.77
2019-03-01T00:37:20.311Z,6.76
2019-03-01T00:40:41.175Z,6.75
2019-03-01T00:44:17.059Z,6.83
2019-03-01T00:47:23.497Z,6.86
2019-03-01T00:50:30.297Z,6.84
2019-03-01T00:53:37.272Z,6.78
2019-03-01T00:56:43.429Z,6.73
2019-03-01T00:59:50.142Z,6.73
2019-03-01T01:02:56.513Z,6.72
2019-03-01T01:06:03.233Z,6.69
2019-03-01T01:09:10.124Z,6.66
2019-03-01T01:12:20.619Z,6.57
2019-03-01T01:15:27.020Z,6.51
2019-03-01T01:18:33.686Z,6.52
2019-03-01T01:21:40.432Z,6.46
2019-03-01T01:24:46.646Z,6.44
2019-03-01T01:27:53.447Z,6.44
2019-03-01T01:30:59.802Z,6.45
2019-03-01T01:34:06.128Z,6.42
2019-03-01T01:37:13.489Z,6.39
2019-03-01T01:40:20.000Z,6.47
2019-03-01T01:43:26.359Z,6.36
2019-03-01T01:46:33.472Z,6.34
2019-03-01T01:49:40.298Z,6.21
2019-03-01T01:52:46.814Z,6.17
2019-03-01T01:55:53.209Z,6.17
2019-03-01T01:58:59.818Z,6.06
2019-03-01T02:02:06.373Z,6.05
2019-03-01T02:05:13.114Z,6.11
2019-03-01T02:08:19.939Z,6.18
2019-03-01T02:11:26.070Z,6.23
2019-03-01T02:14:32.600Z,6.24
2019-03-01T02:17:39.525Z,6.28
2019-03-01T02:20:46.187Z,6.27
2019-03-01T02:23:53.375Z,6.29
2019-03-01T02:27:28.937Z,6.27
2019-03-01T02:30:36.495Z,6.24
2019-03-01T02:33:43.536Z,6.16
2019-03-01T02:36:50.487Z,6.20
2019-03-01T02:39:57.225Z,6.23
2019-03-01T02:43:05.029Z,6.37
2019-03-01T02:46:11.354Z,6.42
2019-03-01T02:49:19.610Z,6.46
2019-03-01T02:52:26.071Z,6.47
2019-03-01T02:55:32.938Z,6.33
2019-03-01T02:58:39.350Z,6.35
2019-03-01T03:01:46.376Z,6.31
2019-03-01T03:04:52.952Z,6.37
2019-03-01T03:08:04.282Z,6.40
2019-03-01T03:11:10.858Z,6.45
2019-03-01T03:14:17.285Z,6.45
2019-03-01T03:17:23.905Z,6.44
2019-03-01T03:20:32.630Z,6.45
2019-03-01T03:23:39.040Z,6.51
2019-03-01T03:26:48.480Z,6.52
2019-03-01T03:29:54.089Z,6.48
2019-03-01T03:33:01.319Z,6.60
2019-03-01T03:36:07.840Z,6.45
2019-03-01T03:39:14.637Z,6.45
2019-03-01T03:42:21.264Z,6.45
2019-03-01T03:45:27.984Z,6.58
2019-03-01T03:48:36.238Z,6.47
2019-03-01T03:51:43.028Z,6.41
2019-03-01T03:54:49.813Z,6.38
2019-03-01T03:57:56.260Z,6.45
2019-03-01T04:01:03.574Z,6.72
2019-03-01T04:04:10.404Z,6.60
2019-03-01T04:07:17.124Z,6.55
2019-03-01T04:10:24.150Z,6.47
2019-03-01T04:13:31.458Z,6.47
2019-03-01T04:16:39.279Z,6.59
2019-03-01T04:19:46.159Z,6.55
2019-03-01T04:22:53.045Z,6.61
2019-03-01T04:25:59.698Z,6.66
2019-03-01T04:29:06.565Z,6.81
2019-03-01T04:32:13.072Z,6.85
2019-03-01T04:35:20.663Z,6.75
2019-03-01T04:38:27.678Z,6.74
2019-03-01T04:41:35.158Z,6.69
2019-03-01T04:44:41.909Z,6.67
2019-03-01T04:47:48.474Z,6.70
2019-03-01T04:50:55.238Z,6.62
2019-03-01T04:54:02.159Z,6.55
2019-03-01T04:57:08.782Z,6.54
2019-03-01T05:00:17.322Z,6.48
2019-03-01T05:03:23.759Z,6.51
2019-03-01T05:06:30.214Z,6.53
2019-03-01T05:09:36.903Z,6.57
2019-03-01T05:12:44.060Z,6.60
2019-03-01T05:15:50.895Z,6.57
2019-03-01T05:18:57.570Z,6.52
2019-03-01T05:22:04.892Z,6.55
2019-03-01T05:25:12.180Z,6.44
2019-03-01T05:28:18.696Z,6.44
2019-03-01T05:31:26.188Z,6.48
2019-03-01T05:34:32.749Z,6.43
2019-03-01T05:37:39.341Z,6.43
2019-03-01T05:40:45.705Z,6.46
2019-03-01T05:43:54.461Z,6.47
2019-03-01T05:47:01.344Z,6.39
2019-03-01T05:50:08.736Z,6.33
2019-03-01T05:53:15.099Z,6.36
2019-03-01T05:56:21.938Z,6.39
2019-03-01T05:59:29.713Z,6.31
2019-03-01T06:03:29.233Z,6.33
2019-03-01T06:06:50.672Z,6.33
2019-03-01T06:10:07.980Z,6.28
2019-03-01T06:13:53.530Z,6.31
2019-03-01T06:17:52.360Z,6.42
2019-03-01T06:21:10.293Z,6.34
2019-03-01T06:25:00.571Z,6.50
2019-03-01T06:28:50.685Z,6.37
2019-03-01T06:32:25.776Z,6.26
2019-03-01T06:36:02.873Z,6.26
2019-03-01T06:39:44.538Z,6.41
2019-03-01T06:43:16.744Z,6.60
2019-03-01T06:47:01.506Z,6.56
2019-03-01T06:50:16.845Z,6.56
2019-03-01T06:53:23.019Z,6.55
2019-03-01T06:56:29.822Z,6.51
2019-03-01T06:59:36.050Z,6.54
2019-03-01T07:02:45.683Z,6.47
2019-03-01T07:05:52.193Z,6.46
2019-03-01T07:08:59.152Z,6.49
2019-03-01T07:12:06.311Z,6.53
2019-03-01T07:15:12.849Z,6.57
2019-03-01T07:18:19.554Z,6.62
2019-03-01T07:21:26.511Z,6.59
2019-03-01T07:24:33.240Z,6.58
2019-03-01T07:27:39.741Z,6.62
2019-03-01T07:30:47.438Z,6.67
2019-03-01T07:33:54.836Z,6.80
2019-03-01T07:37:01.446Z,6.71
2019-03-01T07:40:08.619Z,6.81
2019-03-01T07:43:15.389Z,6.73
2019-03-01T07:46:22.776Z,6.78
2019-03-01T07:49:29.979Z,6.72
2019-03-01T07:52:36.889Z,6.76
2019-03-01T07:55:44.213Z,6.74
2019-03-01T07:58:50.933Z,6.92
2019-03-01T08:02:00.715Z,7.06
2019-03-01T08:05:07.717Z,7.10
2019-03-01T08:08:15.483Z,7.30
2019-03-01T08:11:22.223Z,7.51
2019-03-01T08:14:31.531Z,7.60
2019-03-01T08:17:37.026Z,7.68
2019-03-01T08:20:45.230Z,7.93
2019-03-01T08:23:51.980Z,8.05
2019-03-01T08:26:58.689Z,8.10
2019-03-01T08:30:06.946Z,8.21
2019-03-01T08:33:15.979Z,8.23
2019-03-01T08:36:22.746Z,8.33
2019-03-01T08:39:29.185Z,8.66
2019-03-01T08:42:36.341Z,9.03
2019-03-01T08:45:44.304Z,9.23
2019-03-01T08:48:51.545Z,9.32
2019-03-01T08:51:58.464Z,9.07
2019-03-01T08:55:08.721Z,9.08
2019-03-01T08:58:15.211Z,9.29
2019-03-01T09:01:22.796Z,9.41
2019-03-01T09:04:29.664Z,9.61
2019-03-01T09:07:35.740Z,9.57
2019-03-01T09:10:41.445Z,9.55
2019-03-01T09:13:48.993Z,9.31
2019-03-01T09:16:56.234Z,9.54
2019-03-01T09:20:03.937Z,9.53
2019-03-01T09:23:23.547Z,9.41
2019-03-01T09:26:20.766Z,9.50
2019-03-01T09:29:28.144Z,9.75
2019-03-01T09:32:36.655Z,9.73
2019-03-01T09:36:14.406Z,10.04
2019-03-01T09:39:20.366Z,9.74
2019-03-01T09:42:27.781Z,10.11
2019-03-01T09:45:36.424Z,10.02
2019-03-01T09:48:45.603Z,10.19
2019-03-01T09:51:51.948Z,10.31
2019-03-01T09:55:01.022Z,11.02
2019-03-01T09:58:08.673Z,11.17
2019-03-01T10:01:17.885Z,10.89
2019-03-01T10:04:26.454Z,10.33
2019-03-01T10:07:33.732Z,10.05
2019-03-01T10:10:40.903Z,9.97
2019-03-01T10:13:48.230Z,9.89
2019-03-01T10:20:40.179Z,10.03
2019-03-01T10:23:46.901Z,10.16
2019-03-01T10:26:54.138Z,10.20
2019-03-01T10:30:01.519Z,10.19
2019-03-01T10:33:08.817Z,9.88
2019-03-01T10:36:15.362Z,9.96
2019-03-01T10:39:23.679Z,10.17
2019-03-01T10:42:30.567Z,9.93
2019-03-01T10:45:37.510Z,9.91
2019-03-01T10:48:44.404Z,9.92
2019-03-01T10:51:51.838Z,9.82
2019-03-01T10:54:58.716Z,9.85
2019-03-01T10:58:06.318Z,9.80
2019-03-01T11:01:13.591Z,10.02
2019-03-01T11:04:24.813Z,10.03
2019-03-01T11:07:31.917Z,10.06
2019-03-01T11:10:39.232Z,10.18
2019-03-01T11:13:46.744Z,10.15
2019-03-01T11:16:55.332Z,10.20
2019-03-01T11:20:02.135Z,10.28
2019-03-01T11:23:09.067Z,10.16
2019-03-01T11:26:16.115Z,9.99
2019-03-01T11:29:23.626Z,9.81
2019-03-01T11:32:30.894Z,9.71
2019-03-01T11:35:37.955Z,9.40
2019-03-01T11:38:44.758Z,9.52
2019-03-01T11:41:52.012Z,9.62
2019-03-01T11:44:58.958Z,9.70
2019-03-01T11:48:06.631Z,9.76
2019-03-01T11:51:13.862Z,10.19
2019-03-01T11:54:23.532Z,10.46
2019-03-01T11:57:30.490Z,10.67
2019-03-01T12:00:37.236Z,10.69
2019-03-01T12:03:44.128Z,10.69
2019-03-01T12:06:50.860Z,10.48
2019-03-01T12:09:58.264Z,10.44
2019-03-01T12:13:05.697Z,10.61
2019-03-01T12:16:13.160Z,10.76
2019-03-01T12:19:21.213Z,11.06
2019-03-01T12:22:28.483Z,11.37
2019-03-01T12:25:35.288Z,11.34
2019-03-01T12:28:42.457Z,11.50
2019-03-01T12:31:49.308Z,11.47
2019-03-01T12:34:56.229Z,11.51
2019-03-01T12:38:03.246Z,11.14
2019-03-01T12:41:10.735Z,11.22
2019-03-01T12:44:17.904Z,10.90
2019-03-01T12:47:25.281Z,10.52
2019-03-01T12:50:32.570Z,10.67
2019-03-01T12:53:39.858Z,10.62
2019-03-01T12:56:46.810Z,10.02
2019-03-01T12:59:55.807Z,10.23
2019-03-01T13:03:05.202Z,10.06
2019-03-01T13:06:13.886Z,9.63
2019-03-01T13:09:23.495Z,8.92
2019-03-01T13:12:31.238Z,8.86
2019-03-01T13:15:38.140Z,8.64
2019-03-01T13:18:47.719Z,8.55
2019-03-01T13:21:54.012Z,8.87
2019-03-01T13:25:00.897Z,8.84
2019-03-01T13:28:08.571Z,8.79
2019-03-01T13:31:15.988Z,8.75
2019-03-01T13:34:23.226Z,9.03
2019-03-01T13:37:31.687Z,9.09
2019-03-01T13:40:39.583Z,9.34
2019-03-01T13:43:46.970Z,9.29
2019-03-01T13:46:53.801Z,9.54
2019-03-01T13:50:05.673Z,9.54
2019-03-01T13:53:10.989Z,9.55
2019-03-01T13:56:18.163Z,9.62
2019-03-01T13:59:25.004Z,9.81
2019-03-01T14:02:33.468Z,10.09
2019-03-01T14:05:40.517Z,10.10
2019-03-01T14:08:49.297Z,10.00
2019-03-01T14:11:59.429Z,10.02
2019-03-01T14:15:07.122Z,9.83
2019-03-01T14:18:14.123Z,9.83
2019-03-01T14:21:21.730Z,9.67
2019-03-01T14:24:31.441Z,9.73
2019-03-01T14:27:38.888Z,9.84
2019-03-01T14:30:45.913Z,9.61
2019-03-01T14:33:55.413Z,9.29
2019-03-01T14:37:02.782Z,9.29
2019-03-01T14:40:11.585Z,9.18
2019-03-01T14:43:20.259Z,9.31
2019-03-01T14:46:27.572Z,9.32
2019-03-01T14:49:36.041Z,9.38
2019-03-01T14:52:43.398Z,9.41
2019-03-01T14:55:55.669Z,9.38
2019-03-01T14:59:27.293Z,9.41
2019-03-01T15:02:49.558Z,9.48
2019-03-01T15:05:58.419Z,9.62
2019-03-01T15:09:06.550Z,9.48
2019-03-01T15:12:19.820Z,9.58
2019-03-01T15:15:26.404Z,9.37
2019-03-01T15:18:35.762Z,9.45
2019-03-01T15:21:43.469Z,9.38
2019-03-01T15:24:54.138Z,8.94
2019-03-01T15:28:01.939Z,8.44
2019-03-01T15:31:09.712Z,8.00
2019-03-01T15:34:20.456Z,7.84
2019-03-01T15:37:26.038Z,7.63
2019-03-01T15:40:33.451Z,7.70
2019-03-01T15:43:40.365Z,7.82
2019-03-01T15:46:49.814Z,7.76
2019-03-01T15:49:57.211Z,7.66
2019-03-01T15:53:04.041Z,7.69
2019-03-01T15:56:10.924Z,7.56
2019-03-01T15:59:17.988Z,7.80
2019-03-01T16:02:25.418Z,7.66
2019-03-01T16:05:34.232Z,7.45
2019-03-01T16:08:43.837Z,7.60
2019-03-01T16:11:53.199Z,7.42
2019-03-01T16:15:00.588Z,7.44
2019-03-01T16:18:08.671Z,7.43
2019-03-01T16:21:16.905Z,7.53
2019-03-01T16:24:25.439Z,7.55
2019-03-01T16:27:32.473Z,7.51
2019-03-01T16:30:39.973Z,7.48
2019-03-01T16:33:46.805Z,7.51
2019-03-01T16:36:57.777Z,7.41
2019-03-01T16:40:05.238Z,7.43
2019-03-01T16:43:12.302Z,7.45
2019-03-01T16:46:20.931Z,7.44
2019-03-01T16:49:28.285Z,7.35
2019-03-01T16:52:35.898Z,7.39
2019-03-01T16:55:43.122Z,7.38
2019-03-01T16:58:50.253Z,7.24
2019-03-01T17:01:57.453Z,7.26
2019-03-01T17:05:05.874Z,7.19
2019-03-01T17:08:13.337Z,7.11
2019-03-01T17:11:21.312Z,7.00
2019-03-01T17:14:29.795Z,7.18
2019-03-01T17:17:38.479Z,7.07
2019-03-01T17:20:46.017Z,6.93
2019-03-01T17:23:54.705Z,6.92
2019-03-01T17:27:05.575Z,7.04
2019-03-01T17:30:15.018Z,7.09
2019-03-01T17:33:23.045Z,7.03
2019-03-01T17:36:30.400Z,7.01
2019-03-01T17:39:38.723Z,7.05
2019-03-01T17:42:46.104Z,6.99
2019-03-01T17:45:54.409Z,6.97
2019-03-01T17:49:03.080Z,7.00
2019-03-01T17:52:10.378Z,6.96
2019-03-01T17:55:17.818Z,6.88
2019-03-01T17:58:26.396Z,6.88
2019-03-01T18:01:35.561Z,6.79
2019-03-01T18:04:46.077Z,6.83
2019-03-01T18:07:53.977Z,6.83
2019-03-01T18:11:05.483Z,6.84
2019-03-01T18:14:12.407Z,6.81
2019-03-01T18:17:20.147Z,6.82
2019-03-01T18:20:27.595Z,6.86
2019-03-01T18:23:37.973Z,6.85
2019-03-01T18:26:44.678Z,6.82
2019-03-01T18:29:52.393Z,6.85
2019-03-01T18:32:59.877Z,6.86
2019-03-01T18:36:08.181Z,6.71
2019-03-01T18:39:16.311Z,6.64
2019-03-01T18:42:23.373Z,6.61
2019-03-01T18:45:30.586Z,6.59
2019-03-01T18:48:40.576Z,6.62
2019-03-01T18:51:48.708Z,6.51
2019-03-01T18:54:55.268Z,6.42
2019-03-01T18:58:03.013Z,6.45
2019-03-01T19:01:14.360Z,6.39
2019-03-01T19:04:29.651Z,6.48
2019-03-01T19:07:30.568Z,6.41
2019-03-01T19:10:37.813Z,6.42
2019-03-01T19:13:44.787Z,6.28
2019-03-01T19:16:52.437Z,6.31
2019-03-01T19:20:02.078Z,6.38
2019-03-01T19:23:08.558Z,6.24
2019-03-01T19:26:15.765Z,6.34
2019-03-01T19:29:23.489Z,6.24
2019-03-01T19:32:30.947Z,6.15
2019-03-01T19:35:39.635Z,6.05
2019-03-01T19:38:46.874Z,6.10
2019-03-01T19:41:58.011Z,6.05
2019-03-01T19:45:06.007Z,6.01
2019-03-01T19:48:13.415Z,6.07
2019-03-01T19:51:22.489Z,6.04
2019-03-01T19:54:32.415Z,6.01
2019-03-01T19:57:39.980Z,5.97
2019-03-01T20:00:47.530Z,5.95
2019-03-01T20:03:54.393Z,5.98
2019-03-01T20:07:01.489Z,5.98
2019-03-01T20:10:11.662Z,5.93
2019-03-01T20:13:19.824Z,5.85
2019-03-01T20:16:26.694Z,5.93
2019-03-01T20:19:35.167Z,5.82
2019-03-01T20:22:45.362Z,5.78
2019-03-01T20:25:53.112Z,5.74
2019-03-01T20:29:00.423Z,5.75
2019-03-01T20:32:07.098Z,5.78
2019-03-01T20:35:14.276Z,5.80
2019-03-01T20:38:21.168Z,5.67
2019-03-01T20:41:29.238Z,5.69
2019-03-01T20:44:36.236Z,5.65
2019-03-01T20:47:44.743Z,5.64
2019-03-01T20:50:51.931Z,5.53
2019-03-01T20:54:01.122Z,5.54
2019-03-01T20:57:09.167Z,5.34
2019-03-01T21:00:16.669Z,5.44
2019-03-01T21:03:29.798Z,5.38
2019-03-01T21:06:34.076Z,5.21
2019-03-01T21:09:43.521Z,5.20
2019-03-01T21:12:51.676Z,5.14
2019-03-01T21:15:58.487Z,5.09
2019-03-01T21:19:05.775Z,5.04
2019-03-01T21:22:16.309Z,4.93
2019-03-01T21:25:24.208Z,4.93
2019-03-01T21:28:33.751Z,4.88
2019-03-01T21:31:40.635Z,4.84
2019-03-01T21:34:47.606Z,4.71
2019-03-01T21:37:55.001Z,4.79
2019-03-01T21:41:02.032Z,4.80
2019-03-01T21:44:10.620Z,4.68
2019-03-01T21:47:18.493Z,4.76
2019-03-01T21:50:25.770Z,4.62
2019-03-01T21:53:33.024Z,4.65
2019-03-01T21:56:55.607Z,4.55
2019-03-01T21:59:53.385Z,4.55
2019-03-01T22:03:00.614Z,4.48
2019-03-01T22:06:08.462Z,4.35
2019-03-01T22:09:15.597Z,4.45
2019-03-01T22:12:24.744Z,4.31
2019-03-01T22:15:31.887Z,4.46
2019-03-01T22:18:38.878Z,4.41
2019-03-01T22:21:47.393Z,4.28
2019-03-01T22:24:54.173Z,4.38
2019-03-01T22:28:01.940Z,4.21
2019-03-01T22:31:09.296Z,4.29
2019-03-01T22:34:16.447Z,4.29
2019-03-01T22:37:24.755Z,4.29
2019-03-01T22:40:31.377Z,4.34
2019-03-01T22:43:40.237Z,4.13
2019-03-01T22:46:47.026Z,4.20
2019-03-01T22:49:53.832Z,4.26
2019-03-01T22:53:03.244Z,4.04
2019-03-01T22:56:12.018Z,4.07
2019-03-01T22:59:18.962Z,4.06
2019-03-01T23:02:26.692Z,4.12
2019-03-01T23:05:35.537Z,4.02
2019-03-01T23:08:41.268Z,4.03
2019-03-01T23:11:51.554Z,3.94
2019-03-01T23:14:58.475Z,3.97
2019-03-01T23:18:05.684Z,3.96
2019-03-01T23:21:13.499Z,3.86
2019-03-01T23:24:20.100Z,3.81
2019-03-01T23:27:28.527Z,3.87
2019-03-01T23:30:35.562Z,3.82
2019-03-01T23:33:42.231Z,3.70
2019-03-01T23:36:48.895Z,3.68
2019-03-01T23:39:57.173Z,3.74
2019-03-01T23:43:04.825Z,3.65
2019-03-01T23:46:11.537Z,3.66
2019-03-01T23:49:20.632Z,3.67
2019-03-01T23:52:27.441Z,3.63
2019-03-01T23:55:34.019Z,3.77
2019-03-01T23:58:41.661Z,3.70
